sensor_id;sensor_type;location;lat;lon;timestamp;P1;durP1;ratioP1;P2;durP2;ratioP2
49998;SDS011;68071;45.062;7.356;2023-12-07T00:02:26;15.57;;;6.55;;
49998;SDS011;68071;45.062;7.356;2023-12-07T00:05:30;8.63;;;4.47;;
49998;SDS011;68071;45.062;7.356;2023-12-07T00:08:34;3.70;;;2.97;;
49998;SDS011;68071;45.062;7.356;2023-12-07T00:11:38;3.80;;;2.65;;
49998;SDS011;68071;45.062;7.356;2023-12-07T00:14:42;8.68;;;2.85;;
49998;SDS011;68071;45.062;7.356;2023-12-07T00:17:46;4.55;;;2.72;;
49998;SDS011;68071;45.062;7.356;2023-12-07T00:20:50;7.25;;;3.72;;
49998;SDS011;68071;45.062;7.356;2023-12-07T00:23:54;3.88;;;2.13;;
49998;SDS011;68071;45.062;7.356;2023-12-07T00:26:58;3.50;;;1.88;;
49998;SDS011;68071;45.062;7.356;2023-12-07T00:30:01;5.30;;;3.10;;
49998;SDS011;68071;45.062;7.356;2023-12-07T00:33:06;7.57;;;4.43;;
49998;SDS011;68071;45.062;7.356;2023-12-07T00:36:10;2.80;;;2.42;;
49998;SDS011;68071;45.062;7.356;2023-12-07T00:39:16;5.18;;;2.50;;
49998;SDS011;68071;45.062;7.356;2023-12-07T00:42:20;3.88;;;2.35;;
49998;SDS011;68071;45.062;7.356;2023-12-07T00:45:24;4.10;;;3.47;;
49998;SDS011;68071;45.062;7.356;2023-12-07T00:48:28;9.68;;;4.28;;
49998;SDS011;68071;45.062;7.356;2023-12-07T00:51:32;3.83;;;2.42;;
49998;SDS011;68071;45.062;7.356;2023-12-07T00:54:36;7.43;;;4.10;;
49998;SDS011;68071;45.062;7.356;2023-12-07T00:57:40;2.90;;;1.60;;
49998;SDS011;68071;45.062;7.356;2023-12-07T01:00:44;2.03;;;1.48;;
49998;SDS011;68071;45.062;7.356;2023-12-07T01:03:48;2.08;;;1.60;;
49998;SDS011;68071;45.062;7.356;2023-12-07T01:06:52;2.20;;;1.25;;
49998;SDS011;68071;45.062;7.356;2023-12-07T01:09:56;1.88;;;1.10;;
49998;SDS011;68071;45.062;7.356;2023-12-07T01:13:00;1.30;;;1.08;;
49998;SDS011;68071;45.062;7.356;2023-12-07T01:16:04;2.53;;;1.92;;
49998;SDS011;68071;45.062;7.356;2023-12-07T01:19:08;3.72;;;1.50;;
49998;SDS011;68071;45.062;7.356;2023-12-07T01:22:13;1.13;;;1.02;;
49998;SDS011;68071;45.062;7.356;2023-12-07T01:25:17;5.95;;;2.03;;
49998;SDS011;68071;45.062;7.356;2023-12-07T01:28:25;2.40;;;1.52;;
49998;SDS011;68071;45.062;7.356;2023-12-07T01:31:29;1.33;;;1.20;;
49998;SDS011;68071;45.062;7.356;2023-12-07T01:34:33;1.92;;;1.55;;
49998;SDS011;68071;45.062;7.356;2023-12-07T01:37:39;3.97;;;1.70;;
49998;SDS011;68071;45.062;7.356;2023-12-07T01:40:43;6.18;;;2.50;;
49998;SDS011;68071;45.062;7.356;2023-12-07T01:43:47;2.28;;;1.42;;
49998;SDS011;68071;45.062;7.356;2023-12-07T01:46:51;4.90;;;2.55;;
49998;SDS011;68071;45.062;7.356;2023-12-07T01:49:55;2.88;;;1.25;;
49998;SDS011;68071;45.062;7.356;2023-12-07T01:53:00;2.78;;;1.75;;
49998;SDS011;68071;45.062;7.356;2023-12-07T01:56:06;2.40;;;1.90;;
49998;SDS011;68071;45.062;7.356;2023-12-07T01:59:11;1.95;;;1.50;;
49998;SDS011;68071;45.062;7.356;2023-12-07T02:02:15;2.00;;;1.17;;
49998;SDS011;68071;45.062;7.356;2023-12-07T02:05:19;12.52;;;5.95;;
49998;SDS011;68071;45.062;7.356;2023-12-07T02:08:24;12.63;;;5.65;;
49998;SDS011;68071;45.062;7.356;2023-12-07T02:11:28;5.53;;;4.13;;
49998;SDS011;68071;45.062;7.356;2023-12-07T02:14:32;10.25;;;5.28;;
49998;SDS011;68071;45.062;7.356;2023-12-07T02:24:10;9.40;;;5.03;;
49998;SDS011;68071;45.062;7.356;2023-12-07T02:27:15;16.38;;;7.88;;
49998;SDS011;68071;45.062;7.356;2023-12-07T02:30:19;17.52;;;8.15;;
49998;SDS011;68071;45.062;7.356;2023-12-07T02:33:23;6.03;;;2.85;;
49998;SDS011;68071;45.062;7.356;2023-12-07T02:36:27;12.55;;;6.32;;
49998;SDS011;68071;45.062;7.356;2023-12-07T02:39:33;8.10;;;4.30;;
49998;SDS011;68071;45.062;7.356;2023-12-07T02:42:38;6.68;;;2.92;;
49998;SDS011;68071;45.062;7.356;2023-12-07T02:45:46;8.80;;;4.78;;
49998;SDS011;68071;45.062;7.356;2023-12-07T02:48:51;5.68;;;4.30;;
49998;SDS011;68071;45.062;7.356;2023-12-07T02:51:55;5.03;;;3.53;;
49998;SDS011;68071;45.062;7.356;2023-12-07T02:54:59;3.63;;;2.45;;
49998;SDS011;68071;45.062;7.356;2023-12-07T02:58:03;3.13;;;1.63;;
49998;SDS011;68071;45.062;7.356;2023-12-07T03:01:07;2.28;;;1.95;;
49998;SDS011;68071;45.062;7.356;2023-12-07T03:04:11;1.70;;;1.50;;
49998;SDS011;68071;45.062;7.356;2023-12-07T03:07:15;2.25;;;1.60;;
49998;SDS011;68071;45.062;7.356;2023-12-07T03:10:20;5.22;;;2.28;;
49998;SDS011;68071;45.062;7.356;2023-12-07T03:13:24;4.45;;;2.22;;
49998;SDS011;68071;45.062;7.356;2023-12-07T03:16:28;4.13;;;2.15;;
49998;SDS011;68071;45.062;7.356;2023-12-07T03:19:32;1.90;;;1.23;;
49998;SDS011;68071;45.062;7.356;2023-12-07T03:22:35;1.85;;;1.20;;
49998;SDS011;68071;45.062;7.356;2023-12-07T03:25:39;2.97;;;1.70;;
49998;SDS011;68071;45.062;7.356;2023-12-07T03:28:43;3.80;;;2.58;;
49998;SDS011;68071;45.062;7.356;2023-12-07T03:31:47;3.15;;;2.42;;
49998;SDS011;68071;45.062;7.356;2023-12-07T03:34:51;3.13;;;2.50;;
49998;SDS011;68071;45.062;7.356;2023-12-07T03:37:55;3.00;;;2.58;;
49998;SDS011;68071;45.062;7.356;2023-12-07T03:40:59;4.47;;;4.00;;
49998;SDS011;68071;45.062;7.356;2023-12-07T03:44:03;2.90;;;2.15;;
49998;SDS011;68071;45.062;7.356;2023-12-07T03:47:07;1.70;;;1.33;;
49998;SDS011;68071;45.062;7.356;2023-12-07T03:50:12;1.40;;;1.10;;
49998;SDS011;68071;45.062;7.356;2023-12-07T03:53:17;1.98;;;1.75;;
49998;SDS011;68071;45.062;7.356;2023-12-07T03:56:27;1.88;;;1.60;;
49998;SDS011;68071;45.062;7.356;2023-12-07T03:59:32;1.98;;;1.63;;
49998;SDS011;68071;45.062;7.356;2023-12-07T04:02:40;3.17;;;2.85;;
49998;SDS011;68071;45.062;7.356;2023-12-07T04:05:44;2.50;;;2.08;;
49998;SDS011;68071;45.062;7.356;2023-12-07T04:08:48;2.85;;;2.53;;
49998;SDS011;68071;45.062;7.356;2023-12-07T04:11:52;3.30;;;2.35;;
49998;SDS011;68071;45.062;7.356;2023-12-07T04:14:56;3.30;;;2.60;;
49998;SDS011;68071;45.062;7.356;2023-12-07T04:18:00;4.82;;;2.92;;
49998;SDS011;68071;45.062;7.356;2023-12-07T04:21:04;2.60;;;2.40;;
49998;SDS011;68071;45.062;7.356;2023-12-07T04:24:11;5.15;;;3.05;;
49998;SDS011;68071;45.062;7.356;2023-12-07T04:27:15;5.13;;;2.42;;
49998;SDS011;68071;45.062;7.356;2023-12-07T04:30:18;3.05;;;2.00;;
49998;SDS011;68071;45.062;7.356;2023-12-07T04:33:22;2.95;;;1.80;;
49998;SDS011;68071;45.062;7.356;2023-12-07T04:36:26;2.22;;;1.48;;
49998;SDS011;68071;45.062;7.356;2023-12-07T04:39:30;1.90;;;1.70;;
49998;SDS011;68071;45.062;7.356;2023-12-07T04:42:34;4.43;;;3.05;;
49998;SDS011;68071;45.062;7.356;2023-12-07T04:45:38;2.58;;;1.98;;
49998;SDS011;68071;45.062;7.356;2023-12-07T04:48:42;2.22;;;1.60;;
49998;SDS011;68071;45.062;7.356;2023-12-07T04:51:46;14.25;;;8.75;;
49998;SDS011;68071;45.062;7.356;2023-12-07T04:54:50;3.60;;;1.90;;
49998;SDS011;68071;45.062;7.356;2023-12-07T04:57:54;3.15;;;1.92;;
49998;SDS011;68071;45.062;7.356;2023-12-07T05:00:58;3.05;;;2.25;;
49998;SDS011;68071;45.062;7.356;2023-12-07T05:04:03;2.85;;;2.55;;
49998;SDS011;68071;45.062;7.356;2023-12-07T05:07:07;2.35;;;2.15;;
49998;SDS011;68071;45.062;7.356;2023-12-07T05:10:11;2.63;;;2.15;;
49998;SDS011;68071;45.062;7.356;2023-12-07T05:13:16;2.35;;;1.67;;
49998;SDS011;68071;45.062;7.356;2023-12-07T05:16:20;3.92;;;3.22;;
49998;SDS011;68071;45.062;7.356;2023-12-07T05:19:27;5.32;;;3.50;;
49998;SDS011;68071;45.062;7.356;2023-12-07T05:22:31;3.53;;;2.25;;
49998;SDS011;68071;45.062;7.356;2023-12-07T05:25:35;3.83;;;2.97;;
49998;SDS011;68071;45.062;7.356;2023-12-07T05:28:39;3.38;;;3.08;;
49998;SDS011;68071;45.062;7.356;2023-12-07T05:31:43;5.55;;;4.25;;
49998;SDS011;68071;45.062;7.356;2023-12-07T05:34:47;3.05;;;2.40;;
49998;SDS011;68071;45.062;7.356;2023-12-07T05:37:51;2.55;;;2.25;;
49998;SDS011;68071;45.062;7.356;2023-12-07T05:40:55;2.85;;;2.28;;
49998;SDS011;68071;45.062;7.356;2023-12-07T05:43:59;2.67;;;1.92;;
49998;SDS011;68071;45.062;7.356;2023-12-07T05:47:04;2.60;;;2.40;;
49998;SDS011;68071;45.062;7.356;2023-12-07T05:50:07;2.00;;;1.80;;
49998;SDS011;68071;45.062;7.356;2023-12-07T05:53:12;2.53;;;2.08;;
49998;SDS011;68071;45.062;7.356;2023-12-07T05:56:19;2.47;;;1.65;;
49998;SDS011;68071;45.062;7.356;2023-12-07T05:59:27;3.50;;;2.55;;
49998;SDS011;68071;45.062;7.356;2023-12-07T06:02:31;2.88;;;1.73;;
49998;SDS011;68071;45.062;7.356;2023-12-07T06:05:38;1.95;;;1.70;;
49998;SDS011;68071;45.062;7.356;2023-12-07T06:08:42;1.58;;;1.48;;
49998;SDS011;68071;45.062;7.356;2023-12-07T06:11:47;5.22;;;2.80;;
49998;SDS011;68071;45.062;7.356;2023-12-07T06:14:52;4.45;;;3.65;;
49998;SDS011;68071;45.062;7.356;2023-12-07T06:17:57;3.88;;;3.33;;
49998;SDS011;68071;45.062;7.356;2023-12-07T06:21:01;9.52;;;5.47;;
49998;SDS011;68071;45.062;7.356;2023-12-07T06:24:06;9.27;;;6.50;;
49998;SDS011;68071;45.062;7.356;2023-12-07T06:27:11;24.30;;;15.73;;
49998;SDS011;68071;45.062;7.356;2023-12-07T06:30:15;41.45;;;22.73;;
49998;SDS011;68071;45.062;7.356;2023-12-07T06:33:19;37.42;;;20.02;;
49998;SDS011;68071;45.062;7.356;2023-12-07T06:36:23;6.97;;;4.57;;
49998;SDS011;68071;45.062;7.356;2023-12-07T06:39:29;7.35;;;5.47;;
49998;SDS011;68071;45.062;7.356;2023-12-07T06:42:33;4.03;;;2.75;;
49998;SDS011;68071;45.062;7.356;2023-12-07T06:45:37;4.88;;;3.00;;
49998;SDS011;68071;45.062;7.356;2023-12-07T06:48:41;5.50;;;4.00;;
49998;SDS011;68071;45.062;7.356;2023-12-07T06:51:45;18.23;;;9.93;;
49998;SDS011;68071;45.062;7.356;2023-12-07T06:54:49;20.10;;;10.63;;
49998;SDS011;68071;45.062;7.356;2023-12-07T06:57:53;4.22;;;3.22;;
49998;SDS011;68071;45.062;7.356;2023-12-07T07:00:57;10.75;;;6.82;;
49998;SDS011;68071;45.062;7.356;2023-12-07T07:04:01;7.05;;;4.10;;
49998;SDS011;68071;45.062;7.356;2023-12-07T07:07:05;6.25;;;3.90;;
49998;SDS011;68071;45.062;7.356;2023-12-07T07:10:09;12.18;;;5.60;;
49998;SDS011;68071;45.062;7.356;2023-12-07T07:13:14;8.90;;;5.47;;
49998;SDS011;68071;45.062;7.356;2023-12-07T07:16:22;7.75;;;4.47;;
49998;SDS011;68071;45.062;7.356;2023-12-07T07:19:26;15.75;;;8.80;;
49998;SDS011;68071;45.062;7.356;2023-12-07T07:22:31;19.83;;;12.45;;
49998;SDS011;68071;45.062;7.356;2023-12-07T07:25:35;35.22;;;19.27;;
49998;SDS011;68071;45.062;7.356;2023-12-07T07:28:39;14.88;;;10.73;;
49998;SDS011;68071;45.062;7.356;2023-12-07T07:31:44;11.63;;;6.47;;
49998;SDS011;68071;45.062;7.356;2023-12-07T07:34:47;9.07;;;6.80;;
49998;SDS011;68071;45.062;7.356;2023-12-07T07:37:51;9.05;;;5.25;;
49998;SDS011;68071;45.062;7.356;2023-12-07T07:40:55;7.38;;;5.70;;
49998;SDS011;68071;45.062;7.356;2023-12-07T07:43:59;7.65;;;5.35;;
49998;SDS011;68071;45.062;7.356;2023-12-07T07:47:04;6.18;;;4.43;;
49998;SDS011;68071;45.062;7.356;2023-12-07T07:50:07;3.95;;;3.35;;
49998;SDS011;68071;45.062;7.356;2023-12-07T07:53:14;7.90;;;3.58;;
49998;SDS011;68071;45.062;7.356;2023-12-07T07:56:18;17.77;;;11.18;;
49998;SDS011;68071;45.062;7.356;2023-12-07T07:59:21;8.73;;;5.80;;
49998;SDS011;68071;45.062;7.356;2023-12-07T08:02:25;9.25;;;3.88;;
49998;SDS011;68071;45.062;7.356;2023-12-07T08:05:30;6.78;;;4.43;;
49998;SDS011;68071;45.062;7.356;2023-12-07T08:08:34;4.40;;;3.42;;
49998;SDS011;68071;45.062;7.356;2023-12-07T08:11:38;5.85;;;5.07;;
49998;SDS011;68071;45.062;7.356;2023-12-07T08:14:42;4.43;;;3.28;;
49998;SDS011;68071;45.062;7.356;2023-12-07T08:17:47;4.47;;;3.60;;
49998;SDS011;68071;45.062;7.356;2023-12-07T08:20:51;4.60;;;3.40;;
49998;SDS011;68071;45.062;7.356;2023-12-07T08:23:55;5.40;;;2.42;;
49998;SDS011;68071;45.062;7.356;2023-12-07T08:26:59;5.97;;;5.38;;
49998;SDS011;68071;45.062;7.356;2023-12-07T08:30:03;3.80;;;2.85;;
49998;SDS011;68071;45.062;7.356;2023-12-07T08:36:13;2.72;;;2.20;;
49998;SDS011;68071;45.062;7.356;2023-12-07T08:39:16;2.83;;;2.22;;
49998;SDS011;68071;45.062;7.356;2023-12-07T08:42:21;4.57;;;4.00;;
49998;SDS011;68071;45.062;7.356;2023-12-07T08:45:25;3.40;;;3.10;;
49998;SDS011;68071;45.062;7.356;2023-12-07T08:48:29;3.30;;;3.00;;
49998;SDS011;68071;45.062;7.356;2023-12-07T08:51:34;3.15;;;2.70;;
49998;SDS011;68071;45.062;7.356;2023-12-07T08:54:38;3.15;;;1.67;;
49998;SDS011;68071;45.062;7.356;2023-12-07T08:57:42;4.68;;;2.83;;
49998;SDS011;68071;45.062;7.356;2023-12-07T09:00:46;3.08;;;2.78;;
49998;SDS011;68071;45.062;7.356;2023-12-07T09:03:50;4.72;;;4.32;;
49998;SDS011;68071;45.062;7.356;2023-12-07T09:06:54;4.50;;;3.92;;
49998;SDS011;68071;45.062;7.356;2023-12-07T09:09:58;5.05;;;4.55;;
49998;SDS011;68071;45.062;7.356;2023-12-07T09:13:01;11.13;;;8.15;;
49998;SDS011;68071;45.062;7.356;2023-12-07T09:16:05;10.73;;;7.57;;
49998;SDS011;68071;45.062;7.356;2023-12-07T09:19:10;7.03;;;5.75;;
49998;SDS011;68071;45.062;7.356;2023-12-07T09:25:19;6.55;;;5.93;;
49998;SDS011;68071;45.062;7.356;2023-12-07T09:28:23;6.97;;;5.47;;
49998;SDS011;68071;45.062;7.356;2023-12-07T09:31:27;10.65;;;9.55;;
49998;SDS011;68071;45.062;7.356;2023-12-07T09:34:31;15.52;;;12.23;;
49998;SDS011;68071;45.062;7.356;2023-12-07T09:37:35;4.30;;;3.85;;
49998;SDS011;68071;45.062;7.356;2023-12-07T09:40:39;15.43;;;12.18;;
49998;SDS011;68071;45.062;7.356;2023-12-07T09:43:43;18.50;;;13.88;;
49998;SDS011;68071;45.062;7.356;2023-12-07T09:46:47;11.15;;;8.48;;
49998;SDS011;68071;45.062;7.356;2023-12-07T09:49:51;8.15;;;7.18;;
49998;SDS011;68071;45.062;7.356;2023-12-07T09:52:56;13.13;;;11.73;;
49998;SDS011;68071;45.062;7.356;2023-12-07T09:56:01;17.98;;;15.63;;
49998;SDS011;68071;45.062;7.356;2023-12-07T09:59:05;9.68;;;8.05;;
49998;SDS011;68071;45.062;7.356;2023-12-07T10:02:10;6.47;;;5.13;;
49998;SDS011;68071;45.062;7.356;2023-12-07T10:05:14;5.47;;;4.30;;
49998;SDS011;68071;45.062;7.356;2023-12-07T10:08:28;5.47;;;3.22;;
49998;SDS011;68071;45.062;7.356;2023-12-07T10:11:35;5.57;;;3.38;;
49998;SDS011;68071;45.062;7.356;2023-12-07T10:14:40;3.45;;;3.10;;
49998;SDS011;68071;45.062;7.356;2023-12-07T10:17:48;3.47;;;3.17;;
49998;SDS011;68071;45.062;7.356;2023-12-07T10:20:54;4.35;;;2.65;;
49998;SDS011;68071;45.062;7.356;2023-12-07T10:23:58;3.28;;;2.70;;
49998;SDS011;68071;45.062;7.356;2023-12-07T10:27:01;2.63;;;2.42;;
49998;SDS011;68071;45.062;7.356;2023-12-07T10:30:11;2.55;;;2.15;;
49998;SDS011;68071;45.062;7.356;2023-12-07T10:33:16;4.18;;;3.22;;
49998;SDS011;68071;45.062;7.356;2023-12-07T10:36:20;8.73;;;6.78;;
49998;SDS011;68071;45.062;7.356;2023-12-07T10:39:24;9.82;;;8.50;;
49998;SDS011;68071;45.062;7.356;2023-12-07T10:45:35;3.15;;;2.85;;
49998;SDS011;68071;45.062;7.356;2023-12-07T10:48:43;2.80;;;2.30;;
49998;SDS011;68071;45.062;7.356;2023-12-07T10:52:10;2.60;;;2.40;;
49998;SDS011;68071;45.062;7.356;2023-12-07T10:55:16;2.42;;;2.03;;
49998;SDS011;68071;45.062;7.356;2023-12-07T10:58:24;3.75;;;2.42;;
49998;SDS011;68071;45.062;7.356;2023-12-07T11:01:28;2.27;;;1.60;;
49998;SDS011;68071;45.062;7.356;2023-12-07T11:04:34;2.50;;;1.60;;
49998;SDS011;68071;45.062;7.356;2023-12-07T11:07:52;2.15;;;1.20;;
49998;SDS011;68071;45.062;7.356;2023-12-07T11:14:28;3.20;;;2.45;;
49998;SDS011;68071;45.062;7.356;2023-12-07T11:17:47;1.92;;;1.60;;
49998;SDS011;68071;45.062;7.356;2023-12-07T11:20:56;3.03;;;1.73;;
49998;SDS011;68071;45.062;7.356;2023-12-07T11:24:02;2.35;;;1.40;;
49998;SDS011;68071;45.062;7.356;2023-12-07T11:27:07;2.28;;;1.40;;
49998;SDS011;68071;45.062;7.356;2023-12-07T11:30:11;2.50;;;2.30;;
49998;SDS011;68071;45.062;7.356;2023-12-07T11:33:18;3.75;;;3.45;;
49998;SDS011;68071;45.062;7.356;2023-12-07T11:36:23;2.30;;;2.10;;
49998;SDS011;68071;45.062;7.356;2023-12-07T11:39:37;2.77;;;2.17;;
49998;SDS011;68071;45.062;7.356;2023-12-07T11:42:45;2.60;;;2.30;;
49998;SDS011;68071;45.062;7.356;2023-12-07T11:45:49;3.53;;;2.63;;
49998;SDS011;68071;45.062;7.356;2023-12-07T11:48:53;3.58;;;2.90;;
49998;SDS011;68071;45.062;7.356;2023-12-07T11:51:58;3.95;;;2.97;;
49998;SDS011;68071;45.062;7.356;2023-12-07T11:55:03;2.72;;;2.53;;
49998;SDS011;68071;45.062;7.356;2023-12-07T11:58:11;3.33;;;2.50;;
49998;SDS011;68071;45.062;7.356;2023-12-07T12:01:16;3.97;;;2.50;;
49998;SDS011;68071;45.062;7.356;2023-12-07T12:04:23;3.88;;;2.42;;
49998;SDS011;68071;45.062;7.356;2023-12-07T12:07:27;3.78;;;2.45;;
49998;SDS011;68071;45.062;7.356;2023-12-07T12:10:31;3.20;;;2.90;;
49998;SDS011;68071;45.062;7.356;2023-12-07T12:13:35;3.55;;;2.67;;
49998;SDS011;68071;45.062;7.356;2023-12-07T12:16:40;4.38;;;3.97;;
49998;SDS011;68071;45.062;7.356;2023-12-07T12:19:44;7.15;;;5.05;;
49998;SDS011;68071;45.062;7.356;2023-12-07T12:22:48;6.65;;;5.93;;
49998;SDS011;68071;45.062;7.356;2023-12-07T12:25:53;7.60;;;6.32;;
49998;SDS011;68071;45.062;7.356;2023-12-07T12:28:58;6.97;;;5.78;;
49998;SDS011;68071;45.062;7.356;2023-12-07T12:32:02;5.63;;;5.13;;
49998;SDS011;68071;45.062;7.356;2023-12-07T12:35:06;5.45;;;4.93;;
49998;SDS011;68071;45.062;7.356;2023-12-07T12:38:12;5.40;;;4.90;;
49998;SDS011;68071;45.062;7.356;2023-12-07T12:41:20;5.63;;;5.13;;
49998;SDS011;68071;45.062;7.356;2023-12-07T12:44:24;5.43;;;4.80;;
49998;SDS011;68071;45.062;7.356;2023-12-07T12:47:28;5.47;;;4.97;;
49998;SDS011;68071;45.062;7.356;2023-12-07T12:50:36;7.07;;;5.38;;
49998;SDS011;68071;45.062;7.356;2023-12-07T12:53:45;5.47;;;4.97;;
49998;SDS011;68071;45.062;7.356;2023-12-07T12:56:52;5.13;;;4.60;;
49998;SDS011;68071;45.062;7.356;2023-12-07T12:59:56;5.40;;;4.90;;
49998;SDS011;68071;45.062;7.356;2023-12-07T13:03:00;5.63;;;5.03;;
49998;SDS011;68071;45.062;7.356;2023-12-07T13:06:07;5.30;;;4.57;;
49998;SDS011;68071;45.062;7.356;2023-12-07T13:09:10;5.80;;;4.80;;
49998;SDS011;68071;45.062;7.356;2023-12-07T13:12:14;6.05;;;5.43;;
49998;SDS011;68071;45.062;7.356;2023-12-07T13:15:18;7.22;;;6.47;;
49998;SDS011;68071;45.062;7.356;2023-12-07T13:18:22;5.68;;;5.15;;
49998;SDS011;68071;45.062;7.356;2023-12-07T13:21:26;7.18;;;6.18;;
49998;SDS011;68071;45.062;7.356;2023-12-07T13:24:30;7.18;;;6.47;;
49998;SDS011;68071;45.062;7.356;2023-12-07T13:27:34;6.63;;;6.03;;
49998;SDS011;68071;45.062;7.356;2023-12-07T13:30:39;6.18;;;5.35;;
49998;SDS011;68071;45.062;7.356;2023-12-07T13:33:42;5.45;;;4.95;;
49998;SDS011;68071;45.062;7.356;2023-12-07T13:36:46;4.30;;;3.90;;
49998;SDS011;68071;45.062;7.356;2023-12-07T13:39:51;4.50;;;4.00;;
49998;SDS011;68071;45.062;7.356;2023-12-07T13:43:01;4.90;;;4.50;;
49998;SDS011;68071;45.062;7.356;2023-12-07T13:46:05;5.32;;;4.82;;
49998;SDS011;68071;45.062;7.356;2023-12-07T13:49:09;5.53;;;5.03;;
49998;SDS011;68071;45.062;7.356;2023-12-07T13:52:13;3.90;;;3.50;;
49998;SDS011;68071;45.062;7.356;2023-12-07T13:55:20;3.83;;;3.40;;
49998;SDS011;68071;45.062;7.356;2023-12-07T13:58:23;4.38;;;3.78;;
49998;SDS011;68071;45.062;7.356;2023-12-07T14:01:27;4.40;;;4.00;;
49998;SDS011;68071;45.062;7.356;2023-12-07T14:04:31;3.60;;;3.30;;
49998;SDS011;68071;45.062;7.356;2023-12-07T14:07:35;4.13;;;3.72;;
49998;SDS011;68071;45.062;7.356;2023-12-07T14:10:39;4.40;;;3.45;;
49998;SDS011;68071;45.062;7.356;2023-12-07T14:13:43;3.45;;;3.13;;
49998;SDS011;68071;45.062;7.356;2023-12-07T14:16:49;4.25;;;3.47;;
49998;SDS011;68071;45.062;7.356;2023-12-07T14:19:53;6.03;;;5.03;;
49998;SDS011;68071;45.062;7.356;2023-12-07T14:22:57;4.20;;;3.80;;
49998;SDS011;68071;45.062;7.356;2023-12-07T14:26:07;3.78;;;3.00;;
49998;SDS011;68071;45.062;7.356;2023-12-07T14:29:11;4.35;;;3.45;;
49998;SDS011;68071;45.062;7.356;2023-12-07T14:32:18;4.05;;;3.40;;
49998;SDS011;68071;45.062;7.356;2023-12-07T14:35:24;3.97;;;3.40;;
49998;SDS011;68071;45.062;7.356;2023-12-07T14:38:28;5.03;;;4.53;;
49998;SDS011;68071;45.062;7.356;2023-12-07T14:41:32;4.97;;;4.15;;
49998;SDS011;68071;45.062;7.356;2023-12-07T14:44:36;5.95;;;3.97;;
49998;SDS011;68071;45.062;7.356;2023-12-07T14:47:40;4.90;;;4.18;;
49998;SDS011;68071;45.062;7.356;2023-12-07T14:50:44;4.28;;;2.85;;
49998;SDS011;68071;45.062;7.356;2023-12-07T14:53:47;4.65;;;2.88;;
49998;SDS011;68071;45.062;7.356;2023-12-07T14:56:51;3.08;;;2.17;;
49998;SDS011;68071;45.062;7.356;2023-12-07T14:59:56;7.03;;;4.45;;
49998;SDS011;68071;45.062;7.356;2023-12-07T15:03:01;3.55;;;2.58;;
49998;SDS011;68071;45.062;7.356;2023-12-07T15:06:05;3.70;;;2.50;;
49998;SDS011;68071;45.062;7.356;2023-12-07T15:09:10;4.85;;;3.15;;
49998;SDS011;68071;45.062;7.356;2023-12-07T15:12:14;4.53;;;3.35;;
49998;SDS011;68071;45.062;7.356;2023-12-07T15:18:24;5.20;;;3.90;;
49998;SDS011;68071;45.062;7.356;2023-12-07T15:21:28;4.68;;;3.50;;
49998;SDS011;68071;45.062;7.356;2023-12-07T15:24:33;9.77;;;6.13;;
49998;SDS011;68071;45.062;7.356;2023-12-07T15:27:36;9.43;;;5.80;;
49998;SDS011;68071;45.062;7.356;2023-12-07T15:30:40;6.60;;;4.43;;
49998;SDS011;68071;45.062;7.356;2023-12-07T15:33:44;5.00;;;3.33;;
49998;SDS011;68071;45.062;7.356;2023-12-07T15:36:48;5.38;;;3.65;;
49998;SDS011;68071;45.062;7.356;2023-12-07T15:39:52;7.72;;;3.90;;
49998;SDS011;68071;45.062;7.356;2023-12-07T15:42:56;7.60;;;5.50;;
49998;SDS011;68071;45.062;7.356;2023-12-07T15:46:00;13.35;;;7.20;;
49998;SDS011;68071;45.062;7.356;2023-12-07T15:49:06;7.10;;;4.80;;
49998;SDS011;68071;45.062;7.356;2023-12-07T15:52:10;8.23;;;5.05;;
49998;SDS011;68071;45.062;7.356;2023-12-07T15:55:14;7.32;;;5.03;;
49998;SDS011;68071;45.062;7.356;2023-12-07T15:58:18;8.07;;;3.95;;
49998;SDS011;68071;45.062;7.356;2023-12-07T16:01:22;8.35;;;5.63;;
49998;SDS011;68071;45.062;7.356;2023-12-07T16:04:26;5.80;;;3.83;;
49998;SDS011;68071;45.062;7.356;2023-12-07T16:07:30;10.82;;;7.63;;
49998;SDS011;68071;45.062;7.356;2023-12-07T16:10:34;8.90;;;6.05;;
49998;SDS011;68071;45.062;7.356;2023-12-07T16:13:38;8.45;;;6.60;;
49998;SDS011;68071;45.062;7.356;2023-12-07T16:16:45;10.35;;;7.13;;
49998;SDS011;68071;45.062;7.356;2023-12-07T16:22:54;10.75;;;7.53;;
49998;SDS011;68071;45.062;7.356;2023-12-07T16:25:59;14.10;;;9.48;;
49998;SDS011;68071;45.062;7.356;2023-12-07T16:29:11;17.48;;;10.95;;
49998;SDS011;68071;45.062;7.356;2023-12-07T16:32:16;12.13;;;8.35;;
49998;SDS011;68071;45.062;7.356;2023-12-07T16:35:20;13.65;;;8.45;;
49998;SDS011;68071;45.062;7.356;2023-12-07T16:38:24;5.47;;;3.42;;
49998;SDS011;68071;45.062;7.356;2023-12-07T16:41:28;6.25;;;3.40;;
49998;SDS011;68071;45.062;7.356;2023-12-07T16:44:35;12.55;;;8.95;;
49998;SDS011;68071;45.062;7.356;2023-12-07T16:47:39;7.93;;;6.43;;
49998;SDS011;68071;45.062;7.356;2023-12-07T16:50:43;8.10;;;5.97;;
49998;SDS011;68071;45.062;7.356;2023-12-07T16:53:48;13.45;;;9.15;;
49998;SDS011;68071;45.062;7.356;2023-12-07T16:56:54;9.45;;;6.53;;
49998;SDS011;68071;45.062;7.356;2023-12-07T16:59:57;10.80;;;7.78;;
49998;SDS011;68071;45.062;7.356;2023-12-07T17:03:02;10.70;;;7.40;;
49998;SDS011;68071;45.062;7.356;2023-12-07T17:06:06;5.10;;;4.50;;
49998;SDS011;68071;45.062;7.356;2023-12-07T17:09:11;4.53;;;3.17;;
49998;SDS011;68071;45.062;7.356;2023-12-07T17:12:15;7.40;;;3.83;;
49998;SDS011;68071;45.062;7.356;2023-12-07T17:15:19;8.32;;;4.72;;
49998;SDS011;68071;45.062;7.356;2023-12-07T17:18:22;7.78;;;4.15;;
49998;SDS011;68071;45.062;7.356;2023-12-07T17:21:26;4.45;;;4.00;;
49998;SDS011;68071;45.062;7.356;2023-12-07T17:24:31;5.50;;;4.17;;
49998;SDS011;68071;45.062;7.356;2023-12-07T17:27:35;2.72;;;2.53;;
49998;SDS011;68071;45.062;7.356;2023-12-07T17:30:39;2.50;;;2.30;;
49998;SDS011;68071;45.062;7.356;2023-12-07T17:33:44;4.82;;;3.53;;
49998;SDS011;68071;45.062;7.356;2023-12-07T17:36:47;4.65;;;4.18;;
49998;SDS011;68071;45.062;7.356;2023-12-07T17:39:51;3.40;;;3.10;;
49998;SDS011;68071;45.062;7.356;2023-12-07T17:42:58;5.75;;;4.82;;
49998;SDS011;68071;45.062;7.356;2023-12-07T17:46:05;7.07;;;5.15;;
49998;SDS011;68071;45.062;7.356;2023-12-07T17:49:09;10.93;;;6.43;;
49998;SDS011;68071;45.062;7.356;2023-12-07T17:52:14;12.10;;;6.32;;
49998;SDS011;68071;45.062;7.356;2023-12-07T17:55:18;7.63;;;5.80;;
49998;SDS011;68071;45.062;7.356;2023-12-07T17:58:22;8.02;;;3.95;;
49998;SDS011;68071;45.062;7.356;2023-12-07T18:01:26;6.65;;;5.22;;
49998;SDS011;68071;45.062;7.356;2023-12-07T18:04:33;8.07;;;5.22;;
49998;SDS011;68071;45.062;7.356;2023-12-07T18:07:38;5.57;;;4.28;;
49998;SDS011;68071;45.062;7.356;2023-12-07T18:10:42;2.60;;;2.40;;
49998;SDS011;68071;45.062;7.356;2023-12-07T18:13:47;4.72;;;3.22;;
49998;SDS011;68071;45.062;7.356;2023-12-07T18:16:51;5.70;;;4.57;;
49998;SDS011;68071;45.062;7.356;2023-12-07T18:19:56;4.43;;;2.85;;
49998;SDS011;68071;45.062;7.356;2023-12-07T18:23:00;5.15;;;3.97;;
49998;SDS011;68071;45.062;7.356;2023-12-07T18:26:04;10.10;;;6.97;;
49998;SDS011;68071;45.062;7.356;2023-12-07T18:29:10;6.32;;;4.68;;
49998;SDS011;68071;45.062;7.356;2023-12-07T18:32:14;7.05;;;4.88;;
49998;SDS011;68071;45.062;7.356;2023-12-07T18:35:19;7.57;;;5.30;;
49998;SDS011;68071;45.062;7.356;2023-12-07T18:38:24;5.72;;;4.15;;
49998;SDS011;68071;45.062;7.356;2023-12-07T18:41:29;5.35;;;4.85;;
49998;SDS011;68071;45.062;7.356;2023-12-07T18:44:32;7.57;;;4.82;;
49998;SDS011;68071;45.062;7.356;2023-12-07T18:47:36;5.00;;;4.18;;
49998;SDS011;68071;45.062;7.356;2023-12-07T18:50:40;8.73;;;5.75;;
49998;SDS011;68071;45.062;7.356;2023-12-07T18:53:44;5.95;;;5.00;;
49998;SDS011;68071;45.062;7.356;2023-12-07T18:56:48;6.45;;;4.80;;